Time;durP1;ratioP1;P1;durP2;ratioP2;P2;SDS_P1;SDS_P2;PMS_P1;PMS_P2;Temp;Humidity;BMP_temperature;BMP_pressure;BME280_temperature;BME280_humidity;BME280_pressure;Samples;Min_cycle;Max_cycle;Signal;HPM_P1;HPM_P2
2023/06/15 00:01:58;;;;;;;9.80;3.80;;;;;;;19.15;98.01;96141.78;6128661;23;20357;-81
2023/06/15 00:04:23;;;;;;;7.73;3.80;;;;;;;18.89;98.73;96138.28;6153930;23;20457;-81
2023/06/15 00:06:49;;;;;;;5.77;3.80;;;;;;;19.13;97.98;96141.22;6154452;23;20005;-81
2023/06/15 00:09:15;;;;;;;8.03;3.90;;;;;;;18.88;99.91;96143.81;6180407;23;20008;-81
2023/06/15 00:11:41;;;;;;;6.63;3.67;;;;;;;18.91;99.58;96146.84;6153902;23;20009;-81
2023/06/15 00:14:07;;;;;;;10.17;3.87;;;;;;;18.72;100.00;96143.28;6153358;23;20001;-81
2023/06/15 00:16:33;;;;;;;6.27;3.53;;;;;;;19.01;99.07;96138.41;6154329;23;20008;-81
2023/06/15 00:19:01;;;;;;;6.00;3.93;;;;;;;18.99;99.34;96143.94;6129673;23;20438;-81
2023/06/15 00:21:58;;;;;;;7.03;4.10;;;;;;;18.61;100.00;96146.56;6180161;23;20005;-81
2023/06/15 00:24:24;;;;;;;11.10;4.00;;;;;;;19.11;98.59;96151.25;6129435;23;20005;-81
2023/06/15 00:26:50;;;;;;;6.53;4.30;;;;;;;18.79;100.00;96141.41;6153649;23;20003;-81
2023/06/15 00:29:15;;;;;;;6.10;3.90;;;;;;;19.00;98.54;96142.91;6180129;23;20024;-81
2023/06/15 00:31:41;;;;;;;5.73;4.00;;;;;;;18.85;100.00;96145.06;6128499;23;20090;-81
2023/06/15 00:34:06;;;;;;;7.30;3.73;;;;;;;18.55;100.00;96145.59;6129565;23;20334;-81
2023/06/15 00:36:32;;;;;;;5.77;3.27;;;;;;;19.12;99.62;96139.59;6129366;23;20007;-81
2023/06/15 00:39:00;;;;;;;9.23;4.60;;;;;;;19.04;98.44;96128.13;6153998;23;20089;-81
2023/06/15 00:41:49;;;;;;;6.63;4.30;;;;;;;18.70;100.00;96134.63;6154060;23;20016;-81
2023/06/15 00:44:15;;;;;;;7.10;3.93;;;;;;;18.79;100.00;96140.59;6155288;23;20075;-81
2023/06/15 00:47:06;;;;;;;6.77;3.77;;;;;;;18.90;100.00;96137.22;6131788;23;20032;-81
2023/06/15 00:49:32;;;;;;;10.57;3.83;;;;;;;18.36;100.00;96149.13;6158792;23;20005;-81
2023/06/15 00:52:01;;;;;;;6.97;3.57;;;;;;;18.98;100.00;96146.81;6163664;23;20009;-81
2023/06/15 00:54:27;;;;;;;7.57;4.40;;;;;;;18.98;100.00;96150.31;6153933;23;20039;-81
2023/06/15 00:56:53;;;;;;;5.67;3.63;;;;;;;19.05;99.61;96148.44;6129370;23;20059;-81
2023/06/15 00:59:20;;;;;;;7.10;4.07;;;;;;;19.10;99.64;96147.78;6077347;23;1174030;-81
2023/06/15 01:01:54;;;;;;;5.50;3.80;;;;;;;18.84;100.00;96151.41;6129316;23;20031;-81
2023/06/15 01:04:24;;;;;;;7.70;4.53;;;;;;;18.99;99.63;96151.94;6154199;23;20013;-81
2023/06/15 01:06:56;;;;;;;5.50;3.60;;;;;;;18.83;100.00;96147.13;6155033;23;20380;-81
2023/06/15 01:09:26;;;;;;;5.87;3.63;;;;;;;18.77;100.00;96146.09;6154875;23;20042;-80
2023/06/15 01:12:01;;;;;;;8.73;4.80;;;;;;;19.11;100.00;96146.72;6155383;23;20452;-81
2023/06/15 01:14:29;;;;;;;6.53;3.67;;;;;;;18.84;100.00;96148.75;6154784;23;20009;-81
2023/06/15 01:17:06;;;;;;;9.83;4.33;;;;;;;18.87;100.00;96145.66;6130533;23;20001;-80
2023/06/15 01:22:45;;;;;;;5.70;3.97;;;;;;;18.89;100.00;96145.47;6154640;23;20009;-81
2023/06/15 01:25:41;;;;;;;7.77;4.27;;;;;;;18.83;100.00;96153.25;6181866;23;20036;-81
2023/06/15 01:28:09;;;;;;;7.07;4.20;;;;;;;18.48;100.00;96144.78;6154958;23;20005;-81
2023/06/15 01:30:42;;;;;;;6.80;4.23;;;;;;;18.91;100.00;96146.84;6154569;23;20029;-80
2023/06/15 01:33:12;;;;;;;6.20;4.37;;;;;;;18.79;100.00;96143.25;6130295;23;20013;-81
2023/06/15 01:35:38;;;;;;;6.90;3.93;;;;;;;18.61;100.00;96144.75;6129792;23;20409;-81
2023/06/15 01:38:08;;;;;;;7.87;4.27;;;;;;;18.82;100.00;96137.50;6154469;23;20004;-81
2023/06/15 01:40:38;;;;;;;7.03;4.70;;;;;;;18.74;100.00;96138.53;6181399;23;20004;-80
2023/06/15 01:43:07;;;;;;;9.17;4.20;;;;;;;18.54;100.00;96146.63;6154062;23;20012;-81
2023/06/15 01:45:35;;;;;;;11.23;5.23;;;;;;;18.68;100.00;96142.03;6154749;23;20016;-81
2023/06/15 01:48:00;;;;;;;6.23;4.53;;;;;;;18.46;100.00;96146.03;6180942;23;20005;-81
2023/06/15 01:50:27;;;;;;;8.33;4.17;;;;;;;18.66;100.00;96132.63;6153945;23;20019;-80
2023/06/15 01:52:52;;;;;;;7.27;4.10;;;;;;;18.45;100.00;96141.75;6154311;23;20009;-81
2023/06/15 01:55:18;;;;;;;7.03;4.23;;;;;;;18.65;100.00;96139.00;6130241;23;20001;-81
2023/06/15 01:57:57;;;;;;;7.07;4.40;;;;;;;18.49;100.00;96138.44;6129568;23;20001;-81
2023/06/15 02:00:24;;;;;;;9.30;4.90;;;;;;;18.42;100.00;96142.16;6154197;23;20013;-80
2023/06/15 02:03:15;;;;;;;7.70;4.30;;;;;;;18.44;100.00;96146.22;6154243;23;20426;-81
2023/06/15 02:05:41;;;;;;;6.13;4.40;;;;;;;18.09;100.00;96143.88;6154912;23;19993;-81
2023/06/15 02:08:12;;;;;;;6.70;4.10;;;;;;;18.12;100.00;96143.47;6179523;23;20001;-81
2023/06/15 02:10:38;;;;;;;10.60;5.07;;;;;;;17.80;100.00;96145.16;6130549;23;20029;-81
2023/06/15 02:13:14;;;;;;;6.90;4.47;;;;;;;18.05;100.00;96142.66;6129547;23;20318;-81
2023/06/15 02:15:40;;;;;;;8.13;5.37;;;;;;;18.01;100.00;96138.78;6154197;23;20009;-81
2023/06/15 02:18:12;;;;;;;8.57;5.03;;;;;;;17.83;100.00;96138.59;6130039;23;20008;-80
2023/06/15 02:20:44;;;;;;;6.83;4.80;;;;;;;17.74;100.00;96143.31;6129488;23;20035;-81
2023/06/15 02:23:10;;;;;;;7.00;4.78;;;;;;;17.67;100.00;96145.13;6153958;23;20012;-81
2023/06/15 02:25:37;;;;;;;7.30;4.90;;;;;;;17.59;100.00;96143.50;6154311;23;20444;-81
2023/06/15 02:28:02;;;;;;;6.80;5.00;;;;;;;17.59;100.00;96148.81;6130040;23;20448;-81
2023/06/15 02:30:29;;;;;;;8.23;5.03;;;;;;;17.27;100.00;96144.31;6129351;23;20013;-81
2023/06/15 02:33:04;;;;;;;7.33;5.07;;;;;;;17.14;100.00;96150.44;6130185;23;20035;-81
2023/06/15 02:35:29;;;;;;;7.70;4.53;;;;;;;17.32;100.00;96141.88;6129572;23;20013;-81
2023/06/15 02:37:55;;;;;;;9.33;4.80;;;;;;;17.23;100.00;96140.44;6154055;23;20001;-81
2023/06/15 02:40:43;;;;;;;6.63;4.97;;;;;;;17.40;100.00;96142.50;6153828;23;20380;-80
2023/06/15 02:43:09;;;;;;;7.90;4.83;;;;;;;17.34;100.00;96145.16;6130073;23;20487;-81
2023/06/15 02:45:50;;;;;;;7.97;4.57;;;;;;;17.59;100.00;96143.50;6130235;23;20032;-81
2023/06/15 02:48:16;;;;;;;7.63;4.53;;;;;;;17.49;100.00;96145.75;6129830;23;20340;-81
2023/06/15 02:50:42;;;;;;;7.73;4.50;;;;;;;17.51;100.00;96141.06;6131373;23;20004;-81
2023/06/15 02:53:16;;;;;;;10.83;5.70;;;;;;;17.30;100.00;96138.59;6140652;23;20005;-81
2023/06/15 02:55:41;;;;;;;8.43;5.30;;;;;;;17.63;100.00;96142.06;6160649;23;20012;-81
2023/06/15 02:58:08;;;;;;;6.70;4.57;;;;;;;17.63;100.00;96143.91;6131908;23;20001;-81
2023/06/15 03:00:51;;;;;;;7.47;4.43;;;;;;;17.33;100.00;96139.00;6134748;23;20036;-81
2023/06/15 03:03:34;;;;;;;7.03;4.93;;;;;;;17.27;100.00;96141.66;6134668;23;20009;-81
2023/06/15 03:06:03;;;;;;;8.20;4.50;;;;;;;17.41;100.00;96145.97;6131836;23;20009;-82
2023/06/15 03:08:33;;;;;;;6.53;4.57;;;;;;;17.37;100.00;96145.56;6132455;23;20013;-80
2023/06/15 03:11:25;;;;;;;6.97;4.60;;;;;;;17.52;100.00;96147.19;6159915;23;20028;-81
2023/06/15 03:13:53;;;;;;;7.70;5.23;;;;;;;17.38;100.00;96154.34;6131658;23;20013;-81
2023/06/15 03:16:25;;;;;;;8.00;4.50;;;;;;;17.30;100.00;96143.91;6132376;23;20468;-81
2023/06/15 03:18:52;;;;;;;6.73;4.37;;;;;;;17.22;100.00;96152.91;6156279;23;20016;-81
2023/06/15 03:21:22;;;;;;;5.17;3.67;;;;;;;17.38;100.00;96155.16;6155567;23;20011;-81
2023/06/15 03:23:51;;;;;;;8.03;4.87;;;;;;;17.26;100.00;96169.25;6131709;23;20009;-81
2023/06/15 03:26:17;;;;;;;6.73;4.50;;;;;;;17.24;100.00;96168.66;6131659;23;20005;-81
2023/06/15 03:28:43;;;;;;;9.37;4.43;;;;;;;17.38;100.00;96170.31;6131378;23;19997;-81
2023/06/15 03:31:17;;;;;;;7.70;4.70;;;;;;;17.31;100.00;96169.47;6131411;23;20051;-80
2023/06/15 03:33:44;;;;;;;6.53;4.40;;;;;;;17.35;100.00;96168.88;6131632;23;20009;-81
2023/06/15 03:36:10;;;;;;;9.30;5.03;;;;;;;17.39;100.00;96175.41;6155625;23;20059;-81
2023/06/15 03:38:37;;;;;;;7.13;4.60;;;;;;;17.56;100.00;96177.66;6131583;23;20020;-81
2023/06/15 03:41:02;;;;;;;8.93;5.53;;;;;;;17.38;100.00;96186.25;6131551;23;20388;-80
2023/06/15 03:43:28;;;;;;;6.17;4.30;;;;;;;17.48;100.00;96184.00;6132770;23;20051;-81
2023/06/15 03:45:55;;;;;;;7.47;4.60;;;;;;;17.41;100.00;96191.16;6156454;23;20456;-81
2023/06/15 03:48:25;;;;;;;6.80;4.67;;;;;;;17.42;100.00;96198.94;6132066;23;20001;-81
2023/06/15 03:50:51;;;;;;;8.40;4.77;;;;;;;17.44;100.00;96198.75;6155690;23;20005;-81
2023/06/15 03:53:17;;;;;;;10.27;4.73;;;;;;;17.55;100.00;96206.09;6131175;23;20012;-81
2023/06/15 03:55:42;;;;;;;11.73;5.47;;;;;;;17.53;100.00;96202.00;6156440;23;20422;-81
2023/06/15 03:58:09;;;;;;;8.90;5.20;;;;;;;17.40;100.00;96202.81;6131586;23;20001;-81
2023/06/15 04:00:35;;;;;;;7.90;4.93;;;;;;;17.61;100.00;96205.28;6131783;23;20016;-81
2023/06/15 04:03:05;;;;;;;10.30;4.90;;;;;;;17.41;100.00;96199.97;6155771;23;20008;-84
2023/06/15 04:05:31;;;;;;;7.50;4.87;;;;;;;17.40;100.00;96208.13;6156130;23;20369;-84
2023/06/15 04:07:56;;;;;;;8.17;5.97;;;;;;;17.65;100.00;96205.69;6182960;23;20004;-84
2023/06/15 04:10:23;;;;;;;8.40;5.47;;;;;;;17.65;100.00;96206.50;6131470;23;20021;-83
2023/06/15 04:12:48;;;;;;;6.63;5.10;;;;;;;17.62;100.00;96209.59;6155996;23;20523;-84
2023/06/15 04:15:15;;;;;;;7.20;5.17;;;;;;;17.80;100.00;96205.50;6131538;23;20013;-83
2023/06/15 04:18:00;;;;;;;8.67;5.27;;;;;;;17.61;100.00;96210.63;6131674;23;20049;-82
2023/06/15 04:20:44;;;;;;;7.03;4.90;;;;;;;17.43;100.00;96213.03;6131521;23;20098;-83
2023/06/15 04:23:10;;;;;;;9.50;5.20;;;;;;;17.23;100.00;96222.81;6156464;23;20012;-83
2023/06/15 04:25:37;;;;;;;14.57;6.20;;;;;;;17.63;100.00;96216.53;6181830;23;20582;-84
2023/06/15 04:28:05;;;;;;;9.93;6.10;;;;;;;17.61;100.00;96218.59;6132512;23;20005;-83
2023/06/15 04:30:32;;;;;;;9.10;5.30;;;;;;;17.73;100.00;96220.63;6132712;23;20004;-84
2023/06/15 04:33:22;;;;;;;11.83;5.10;;;;;;;17.88;100.00;96219.44;6132730;23;20005;-84
2023/06/15 04:35:48;;;;;;;8.00;5.23;;;;;;;18.02;100.00;96233.56;6148270;23;20073;-83
2023/06/15 04:38:16;;;;;;;10.17;5.50;;;;;;;18.04;100.00;96223.53;6181583;23;19997;-84
2023/06/15 04:40:46;;;;;;;7.13;5.13;;;;;;;17.88;100.00;96234.59;6182068;23;20279;-83
2023/06/15 04:43:14;;;;;;;10.73;7.23;;;;;;;18.01;100.00;96237.25;6144490;23;20033;-83
2023/06/15 04:45:40;;;;;;;12.30;7.07;;;;;;;18.00;100.00;96235.59;6157569;23;20004;-82
2023/06/15 04:48:06;;;;;;;8.83;6.50;;;;;;;18.24;100.00;96241.28;6134195;23;20040;-83
2023/06/15 04:50:32;;;;;;;9.23;5.90;;;;;;;17.98;100.00;96240.31;6158458;23;20333;-82
2023/06/15 04:52:58;;;;;;;8.37;5.50;;;;;;;18.12;100.00;96239.28;6156213;23;20013;-82
2023/06/15 04:55:23;;;;;;;7.47;5.73;;;;;;;17.95;100.00;96238.06;6176068;23;20007;-83
2023/06/15 04:57:52;;;;;;;7.23;5.47;;;;;;;17.99;100.00;96241.94;6130369;23;20714;-82
2023/06/15 05:00:20;;;;;;;9.00;5.47;;;;;;;17.85;100.00;96245.63;6155321;23;20008;-82
2023/06/15 05:02:50;;;;;;;7.20;5.20;;;;;;;18.53;100.00;96240.84;6131314;23;20001;-83
2023/06/15 05:05:16;;;;;;;11.10;6.33;;;;;;;18.49;100.00;96241.47;6179418;23;20009;-83
2023/06/15 05:07:43;;;;;;;9.37;5.53;;;;;;;18.46;100.00;96236.56;6130417;23;20430;-82
2023/06/15 05:10:09;;;;;;;8.87;5.80;;;;;;;18.21;100.00;96237.22;6130613;23;20001;-83
2023/06/15 05:12:35;;;;;;;8.30;5.87;;;;;;;17.99;100.00;96233.97;6155552;23;20012;-82
2023/06/15 05:15:01;;;;;;;9.00;5.93;;;;;;;17.90;100.00;96238.66;6154980;23;20058;-83
2023/06/15 05:17:27;;;;;;;8.37;5.60;;;;;;;18.37;100.00;96246.59;6155679;23;20005;-83
2023/06/15 05:20:06;;;;;;;12.00;6.27;;;;;;;18.18;100.00;96250.94;6154836;23;20017;-83
2023/06/15 05:22:31;;;;;;;9.77;5.90;;;;;;;18.76;100.00;96247.56;6155302;23;20071;-83
2023/06/15 05:24:57;;;;;;;11.00;6.73;;;;;;;19.10;100.00;96245.59;6155814;23;20155;-83
2023/06/15 05:27:22;;;;;;;10.40;6.80;;;;;;;19.05;100.00;96255.03;6130380;23;20460;-83
2023/06/15 05:29:48;;;;;;;9.53;6.40;;;;;;;18.97;100.00;96257.13;6130756;23;20375;-82
2023/06/15 05:32:29;;;;;;;8.57;6.13;;;;;;;19.03;100.00;96257.09;6130361;23;20019;-83
2023/06/15 05:34:55;;;;;;;11.30;7.13;;;;;;;19.26;100.00;96256.56;6128353;23;20032;-82
2023/06/15 05:37:21;;;;;;;9.47;6.10;;;;;;;19.32;100.00;96257.59;6126437;23;20001;-81
2023/06/15 05:39:47;;;;;;;8.27;6.30;;;;;;;19.23;100.00;96256.19;6150015;23;20005;-83
2023/06/15 05:42:13;;;;;;;10.13;6.07;;;;;;;19.50;100.00;96259.53;6125516;23;20012;-83
2023/06/15 05:44:43;;;;;;;8.67;6.17;;;;;;;19.95;100.00;96246.09;6149853;23;20039;-82
2023/06/15 05:47:09;;;;;;;9.60;6.53;;;;;;;20.01;100.00;96256.72;6155660;23;20005;-83
2023/06/15 05:49:34;;;;;;;9.93;6.77;;;;;;;19.83;100.00;96256.66;6130288;23;20011;-82
2023/06/15 05:52:14;;;;;;;9.33;7.27;;;;;;;20.45;98.94;96260.22;6154081;23;20009;-83
2023/06/15 05:54:43;;;;;;;8.17;6.33;;;;;;;20.29;100.00;96266.16;6130604;23;20452;-82
2023/06/15 05:57:18;;;;;;;12.90;8.03;;;;;;;20.36;100.00;96266.91;6130217;23;20001;-83
2023/06/15 05:59:46;;;;;;;9.23;6.93;;;;;;;21.13;94.74;96266.50;6130139;23;20092;-83
2023/06/15 06:02:16;;;;;;;8.43;6.00;;;;;;;20.98;92.92;96269.56;6154432;23;20005;-82
2023/06/15 06:04:42;;;;;;;12.83;7.00;;;;;;;20.63;96.62;96277.38;6129493;23;20009;-83
2023/06/15 06:07:07;;;;;;;9.17;6.27;;;;;;;21.05;91.57;96269.47;6129586;23;20043;-83
2023/06/15 06:09:36;;;;;;;9.07;6.93;;;;;;;21.11;92.28;96273.94;6154945;23;20004;-83
2023/06/15 06:12:04;;;;;;;12.03;6.57;;;;;;;21.82;89.68;96267.03;6152634;23;20100;-83
2023/06/15 06:14:31;;;;;;;9.77;6.27;;;;;;;21.62;88.12;96264.63;6154257;23;20618;-83
2023/06/15 06:16:57;;;;;;;10.50;6.60;;;;;;;21.84;89.15;96273.78;6129584;23;20001;-82
2023/06/15 06:19:24;;;;;;;7.40;6.18;;;;;;;21.76;87.56;96274.09;6130237;23;20441;-82
2023/06/15 06:21:49;;;;;;;10.20;6.33;;;;;;;22.33;83.66;96271.78;6129530;23;20048;-82
2023/06/15 06:24:16;;;;;;;12.20;6.93;;;;;;;21.96;90.39;96262.28;6154856;23;20717;-83
2023/06/15 06:26:44;;;;;;;8.73;6.25;;;;;;;22.67;82.16;96271.19;6154194;23;20051;-82
2023/06/15 06:29:09;;;;;;;8.93;6.38;;;;;;;22.45;83.33;96270.97;6129912;23;20005;-83
2023/06/15 06:31:35;;;;;;;9.07;6.30;;;;;;;23.65;73.96;96264.06;6129485;23;20008;-82
2023/06/15 06:34:03;;;;;;;8.75;6.38;;;;;;;23.39;76.00;96270.81;6154657;23;20008;-83
2023/06/15 06:36:31;;;;;;;9.45;6.07;;;;;;;24.06;70.69;96262.09;6129786;23;20095;-83
2023/06/15 06:38:57;;;;;;;10.18;5.75;;;;;;;24.44;66.29;96259.50;6153712;23;20080;-83
2023/06/15 06:41:22;;;;;;;8.52;6.07;;;;;;;24.57;65.78;96257.53;6153487;23;20043;-83
2023/06/15 06:43:48;;;;;;;8.07;5.82;;;;;;;24.62;65.89;96265.69;6130234;23;20443;-84
2023/06/15 06:46:22;;;;;;;8.60;5.55;;;;;;;24.90;62.45;96267.41;6128839;23;20005;-83
2023/06/15 06:48:49;;;;;;;9.40;5.75;;;;;;;25.67;59.39;96265.63;6156271;23;20016;-83
2023/06/15 06:51:15;;;;;;;9.13;5.40;;;;;;;26.27;54.95;96264.56;6155743;23;20079;-83
2023/06/15 06:53:40;;;;;;;6.88;4.88;;;;;;;26.83;50.97;96264.97;6161277;23;19989;-82
2023/06/15 06:56:06;;;;;;;8.07;5.28;;;;;;;25.76;54.55;96269.50;6171879;23;20011;-83
2023/06/15 06:58:31;;;;;;;7.53;5.00;;;;;;;25.98;55.56;96275.66;6130254;23;20867;-83
2023/06/15 07:00:57;;;;;;;8.73;5.20;;;;;;;26.67;51.47;96263.25;6153990;23;20017;-82
2023/06/15 07:03:23;;;;;;;6.97;5.25;;;;;;;26.68;52.66;96264.88;6154185;23;20384;-83
2023/06/15 07:05:49;;;;;;;7.07;5.50;;;;;;;26.76;51.23;96272.47;6153718;23;20008;-83
2023/06/15 07:08:15;;;;;;;8.20;5.50;;;;;;;27.90;46.85;96268.09;6129704;23;20008;-83
2023/06/15 07:10:40;;;;;;;7.80;4.68;;;;;;;27.85;46.43;96268.06;6129844;23;20005;-82
2023/06/15 07:13:06;;;;;;;8.63;5.40;;;;;;;27.60;44.82;96278.78;6129816;23;20337;-84
2023/06/15 07:15:32;;;;;;;9.27;5.03;;;;;;;28.67;43.19;96277.03;6180001;23;20055;-84
2023/06/15 07:17:58;;;;;;;9.20;5.38;;;;;;;29.46;41.44;96260.25;6154600;23;20005;-83
2023/06/15 07:20:24;;;;;;;6.97;4.90;;;;;;;28.74;42.36;96263.22;6180349;23;20013;-83
2023/06/15 07:22:51;;;;;;;6.75;4.80;;;;;;;29.06;42.08;96270.16;6152972;23;20480;-83
2023/06/15 07:25:25;;;;;;;6.43;4.32;;;;;;;29.85;39.73;96260.31;6128448;23;20088;-83
2023/06/15 07:27:58;;;;;;;7.00;4.95;;;;;;;30.78;37.51;96266.63;6128994;23;20001;-81
2023/06/15 07:30:23;;;;;;;;;;;;;;;30.49;37.53;96264.72;6154281;23;20013;-83
2023/06/15 07:32:49;;;;;;;8.77;4.75;;;;;;;29.81;38.06;96268.22;6179934;23;19904;-83
2023/06/15 07:35:15;;;;;;;7.07;4.22;;;;;;;31.14;35.60;96264.31;6129202;23;20005;-83
2023/06/15 07:37:40;;;;;;;8.25;4.40;;;;;;;30.06;36.61;96261.78;6153884;23;20060;-83
2023/06/15 07:40:07;;;;;;;7.28;4.68;;;;;;;30.00;36.04;96260.19;6129440;23;20013;-83
2023/06/15 07:42:32;;;;;;;7.75;4.47;;;;;;;31.17;34.99;96269.19;6155608;23;20016;-83
2023/06/15 07:44:58;;;;;;;5.82;3.83;;;;;;;31.31;35.15;96263.84;6131770;23;20001;-83
2023/06/15 07:47:23;;;;;;;7.55;4.18;;;;;;;31.45;34.99;96269.41;6131717;23;20068;-83
2023/06/15 07:49:49;;;;;;;5.75;3.85;;;;;;;31.01;34.43;96270.44;6131379;23;20054;-83
2023/06/15 07:52:15;;;;;;;6.13;4.10;;;;;;;31.18;34.90;96265.34;6181446;23;20500;-82
2023/06/15 07:54:41;;;;;;;11.65;4.20;;;;;;;30.26;35.53;96263.56;6131696;23;20012;-83
2023/06/15 07:57:07;;;;;;;5.50;3.83;;;;;;;31.84;34.00;96268.34;6156484;23;20008;-83
2023/06/15 07:59:32;;;;;;;6.40;3.95;;;;;;;32.51;32.38;96257.25;6181425;23;20001;-83
2023/06/15 08:01:58;;;;;;;5.80;3.80;;;;;;;32.52;32.53;96259.66;6129778;23;20013;-83
2023/06/15 08:04:24;;;;;;;6.00;3.80;;;;;;;33.26;30.83;96267.81;6130735;23;20036;-83
2023/06/15 08:06:49;;;;;;;4.63;3.50;;;;;;;32.77;30.78;96261.13;6155402;23;20549;-82
2023/06/15 08:09:15;;;;;;;5.20;3.42;;;;;;;32.37;30.67;96268.09;6157125;23;19997;-83
2023/06/15 08:11:49;;;;;;;6.57;3.90;;;;;;;32.34;30.89;96271.41;6131187;23;20420;-83
2023/06/15 08:14:14;;;;;;;6.05;4.15;;;;;;;32.48;30.24;96255.94;6130804;23;20008;-82
2023/06/15 08:16:40;;;;;;;6.03;4.00;;;;;;;33.30;29.55;96252.50;6131573;23;20005;-83
2023/06/15 08:19:06;;;;;;;6.35;3.75;;;;;;;32.53;30.64;96250.41;6157610;23;20001;-83
2023/06/15 08:21:32;;;;;;;5.85;3.78;;;;;;;32.75;29.59;96252.44;6131512;23;20345;-82
2023/06/15 08:23:58;;;;;;;4.75;3.40;;;;;;;32.94;29.73;96255.09;6156733;23;20012;-83
2023/06/15 08:26:42;;;;;;;6.32;3.75;;;;;;;33.77;28.12;96249.56;6131956;23;20016;-83
2023/06/15 08:29:08;;;;;;;5.38;3.22;;;;;;;33.00;29.01;96250.38;6141428;23;20012;-83
2023/06/15 08:31:35;;;;;;;6.95;3.80;;;;;;;32.37;29.15;96262.63;6164570;23;20009;-83
2023/06/15 08:34:00;;;;;;;7.07;3.60;;;;;;;31.46;30.03;96257.44;6131626;23;20425;-83
2023/06/15 08:36:26;;;;;;;5.22;3.60;;;;;;;31.66;29.88;96257.16;6160780;23;20036;-84
2023/06/15 08:38:52;;;;;;;5.47;3.22;;;;;;;33.32;27.83;96247.53;6154987;23;20001;-83
2023/06/15 08:41:19;;;;;;;6.13;3.67;;;;;;;32.21;30.39;96259.34;6130721;23;20008;-84
2023/06/15 08:43:46;;;;;;;7.22;4.15;;;;;;;32.59;29.65;96254.63;6156863;23;20008;-84
2023/06/15 08:46:12;;;;;;;7.78;4.20;;;;;;;32.73;29.81;96253.84;6182531;23;20012;-83
2023/06/15 08:48:39;;;;;;;5.10;3.83;;;;;;;32.88;29.51;96253.56;6183468;23;20001;-83
2023/06/15 08:51:09;;;;;;;6.65;3.78;;;;;;;31.99;29.86;96254.53;6133274;23;20013;-83
2023/06/15 08:53:37;;;;;;;7.30;3.83;;;;;;;32.89;28.22;96246.19;6141119;23;20365;-83
2023/06/15 08:56:09;;;;;;;5.45;3.45;;;;;;;32.72;28.65;96258.50;6140673;23;20011;-82
2023/06/15 08:58:35;;;;;;;;;;;;;;;33.41;27.30;96247.63;6131880;23;20047;-83
2023/06/15 09:01:02;;;;;;;4.90;3.20;;;;;;;32.07;28.98;96248.41;6130781;23;19912;-84
2023/06/15 09:03:29;;;;;;;5.75;3.28;;;;;;;32.35;28.38;96249.31;6131278;23;20577;-84
2023/06/15 09:05:54;;;;;;;4.82;3.47;;;;;;;32.83;27.44;96243.59;6130907;23;20012;-85
2023/06/15 09:08:20;;;;;;;5.90;3.40;;;;;;;33.70;26.99;96249.19;6131405;23;19993;-84
2023/06/15 09:10:46;;;;;;;7.78;3.60;;;;;;;34.03;26.76;96245.16;6155862;23;20032;-84
2023/06/15 09:13:18;;;;;;;5.40;2.95;;;;;;;33.76;26.01;96245.25;6155362;23;20005;-84
2023/06/15 09:15:50;;;;;;;5.50;3.20;;;;;;;34.14;25.53;96239.47;6155519;23;20409;-84
2023/06/15 09:18:16;;;;;;;5.07;3.40;;;;;;;34.27;24.79;96246.78;6182683;23;20001;-84
2023/06/15 09:20:42;;;;;;;5.03;3.28;;;;;;;34.93;24.75;96245.09;6155775;23;20059;-84
2023/06/15 09:23:11;;;;;;;4.32;2.75;;;;;;;31.71;26.49;96259.00;6155557;23;20028;-84
2023/06/15 09:25:41;;;;;;;7.43;3.17;;;;;;;30.18;28.50;96247.91;6155976;23;20071;-84
2023/06/15 09:28:07;;;;;;;5.53;3.55;;;;;;;31.78;27.67;96242.31;6131079;23;20084;-84
2023/06/15 09:30:37;;;;;;;4.63;3.10;;;;;;;32.39;26.56;96246.78;6130670;23;20509;-84
2023/06/15 09:33:19;;;;;;;4.85;3.22;;;;;;;31.75;27.88;96243.72;6154528;23;20020;-83
2023/06/15 09:36:01;;;;;;;6.75;3.58;;;;;;;32.46;26.60;96236.34;6154810;23;20013;-82
2023/06/15 09:38:32;;;;;;;5.75;3.80;;;;;;;32.37;26.70;96240.88;6129044;23;20822;-83
2023/06/15 09:41:06;;;;;;;5.40;3.42;;;;;;;32.17;26.40;96236.56;6154949;23;20037;-83
2023/06/15 09:43:41;;;;;;;4.15;2.88;;;;;;;33.53;25.53;96234.28;6130338;23;20012;-83
2023/06/15 09:46:16;;;;;;;6.80;3.20;;;;;;;34.29;24.96;96239.09;6130383;23;20005;-83
2023/06/15 09:48:48;;;;;;;5.88;3.40;;;;;;;32.01;26.59;96244.16;6154774;23;20048;-83
2023/06/15 09:51:15;;;;;;;6.20;3.67;;;;;;;33.59;25.18;96240.44;6178254;23;20016;-83
2023/06/15 09:53:43;;;;;;;4.78;3.53;;;;;;;34.34;24.01;96241.72;6181396;23;20051;-83
2023/06/15 09:56:21;;;;;;;7.30;3.15;;;;;;;33.14;24.75;96239.50;6179327;23;20614;-82
2023/06/15 09:58:48;;;;;;;4.85;3.17;;;;;;;32.26;26.17;96245.69;6130520;23;20282;-83
2023/06/15 10:01:33;;;;;;;6.15;3.38;;;;;;;32.27;25.36;96244.56;6153433;23;20032;-83
2023/06/15 10:03:59;;;;;;;4.22;3.08;;;;;;;31.98;26.53;96244.75;6181006;23;20086;-83
2023/06/15 10:06:26;;;;;;;5.82;3.25;;;;;;;32.45;25.95;96236.66;6154189;23;20001;-83
2023/06/15 10:08:58;;;;;;;7.95;3.17;;;;;;;31.52;27.03;96253.53;6181399;23;20436;-83
2023/06/15 10:11:26;;;;;;;4.40;2.70;;;;;;;31.54;26.86;96251.34;6129688;23;20009;-83
2023/06/15 10:13:57;;;;;;;4.25;2.90;;;;;;;31.79;26.60;96249.34;6154908;23;20612;-83
2023/06/15 10:16:28;;;;;;;6.45;3.20;;;;;;;31.28;26.95;96250.84;6154987;23;20004;-83
2023/06/15 10:19:01;;;;;;;6.18;3.20;;;;;;;31.22;27.18;96249.28;6130391;23;20011;-83
2023/06/15 10:21:29;;;;;;;5.22;3.15;;;;;;;31.36;26.79;96244.00;6154270;23;20009;-83
2023/06/15 10:23:58;;;;;;;5.72;3.00;;;;;;;32.56;24.94;96238.91;6130264;23;20004;-82
2023/06/15 10:26:24;;;;;;;4.32;2.67;;;;;;;32.93;25.04;96230.88;6129835;23;20017;-82
2023/06/15 10:28:56;;;;;;;4.60;3.15;;;;;;;32.87;24.42;96235.63;6155138;23;20333;-83
2023/06/15 10:31:43;;;;;;;5.20;3.10;;;;;;;31.83;24.90;96240.34;6179972;23;20005;-83
2023/06/15 10:34:28;;;;;;;6.28;3.25;;;;;;;29.31;28.16;96244.88;6130033;23;20037;-82
2023/06/15 10:37:36;;;;;;;4.07;2.90;;;;;;;29.47;28.79;96240.19;6129896;23;20614;-83
2023/06/15 10:40:11;;;;;;;4.57;3.20;;;;;;;29.84;29.03;96243.22;6129640;23;20001;-83
2023/06/15 10:42:44;;;;;;;8.55;2.97;;;;;;;29.20;29.48;96238.69;6178982;23;20036;-82
2023/06/15 10:45:29;;;;;;;4.60;3.35;;;;;;;28.58;30.25;96248.88;6130393;23;20005;-82
2023/06/15 10:47:58;;;;;;;5.82;3.78;;;;;;;29.15;29.67;96249.56;6155946;23;19997;-82
2023/06/15 10:50:25;;;;;;;5.95;3.45;;;;;;;29.27;28.88;96251.94;6131153;23;20067;-83
2023/06/15 10:52:51;;;;;;;7.20;3.25;;;;;;;29.49;28.92;96246.16;6179420;23;20087;-82
2023/06/15 10:55:22;;;;;;;5.30;3.22;;;;;;;29.44;29.18;96249.69;6149883;23;20029;-83
2023/06/15 10:57:48;;;;;;;4.65;2.90;;;;;;;30.60;28.40;96246.44;6154110;23;20005;-83
2023/06/15 11:00:24;;;;;;;5.72;3.15;;;;;;;30.73;27.56;96247.66;6130068;23;20390;-83
2023/06/15 11:02:59;;;;;;;5.85;3.10;;;;;;;31.37;27.07;96246.41;6129487;23;20141;-83
2023/06/15 11:05:39;;;;;;;5.47;3.17;;;;;;;30.61;27.56;96244.50;6153377;23;20005;-83
2023/06/15 11:08:15;;;;;;;6.93;3.50;;;;;;;30.48;28.03;96237.84;6154038;23;20001;-83
2023/06/15 11:10:43;;;;;;;5.03;3.00;;;;;;;30.53;26.65;96244.03;6129688;23;20001;-83
2023/06/15 11:13:08;;;;;;;4.20;2.67;;;;;;;29.96;27.11;96240.16;6128278;23;20015;-83
2023/06/15 11:15:35;;;;;;;5.47;3.13;;;;;;;29.67;28.05;96237.38;6128726;23;20001;-83
2023/06/15 11:18:12;;;;;;;5.10;3.38;;;;;;;30.65;27.73;96232.81;6130185;23;20059;-83
2023/06/15 11:20:46;;;;;;;5.88;3.10;;;;;;;29.99;28.10;96226.06;6129946;23;20013;-83
2023/06/15 11:23:16;;;;;;;4.68;3.22;;;;;;;29.93;28.68;96237.22;6155662;23;20012;-83
2023/06/15 11:25:54;;;;;;;5.35;2.97;;;;;;;30.09;28.57;96233.31;6180487;23;20518;-82
2023/06/15 11:28:24;;;;;;;4.20;2.95;;;;;;;30.63;28.95;96239.63;6131406;23;20685;-83
2023/06/15 11:30:50;;;;;;;4.53;3.17;;;;;;;30.40;29.31;96244.72;6132481;23;20012;-83
2023/06/15 11:33:30;;;;;;;5.13;3.58;;;;;;;30.29;28.72;96232.34;6131769;23;20106;-84
2023/06/15 11:35:56;;;;;;;6.10;3.80;;;;;;;30.65;28.33;96235.53;6157894;23;20009;-84
2023/06/15 11:38:26;;;;;;;5.68;3.30;;;;;;;30.77;27.74;96235.97;6131809;23;20444;-84
2023/06/15 11:41:01;;;;;;;4.90;3.45;;;;;;;30.61;27.21;96231.75;6156635;23;20016;-83
2023/06/15 11:43:40;;;;;;;5.88;3.50;;;;;;;31.76;25.67;96231.75;6131770;23;20005;-83